createdAt,value
2023-03-15T00:02:28.752Z,56.71
2023-03-15T00:05:13.982Z,56.33
2023-03-15T00:07:59.719Z,56.52
2023-03-15T00:10:47.195Z,56.25
2023-03-15T00:13:33.531Z,56.48
2023-03-15T00:16:19.131Z,56.24
2023-03-15T00:19:04.574Z,56.71
2023-03-15T00:21:49.896Z,56.16
2023-03-15T00:24:35.523Z,56.06
2023-03-15T00:27:20.860Z,56.59
2023-03-15T00:30:07.091Z,56.32
2023-03-15T00:32:56.233Z,56.14
2023-03-15T00:35:43.859Z,55.80
2023-03-15T00:38:29.572Z,56.73
2023-03-15T00:41:17.523Z,57.09
2023-03-15T00:44:04.245Z,57.03
2023-03-15T00:46:50.708Z,56.99
2023-03-15T00:49:36.014Z,57.18
2023-03-15T00:52:22.078Z,57.54
2023-03-15T00:55:13.942Z,57.36
2023-03-15T00:57:59.443Z,57.22
2023-03-15T01:00:46.836Z,57.67
2023-03-15T01:03:32.223Z,57.26
2023-03-15T01:06:20.682Z,57.21
2023-03-15T01:09:06.552Z,57.52
2023-03-15T01:11:52.027Z,57.25
2023-03-15T01:14:39.078Z,56.91
2023-03-15T01:17:24.531Z,57.43
2023-03-15T01:20:13.221Z,57.05
2023-03-15T01:22:59.517Z,56.90
2023-03-15T01:25:45.083Z,56.61
2023-03-15T01:28:30.669Z,56.44
2023-03-15T01:31:25.680Z,56.57
2023-03-15T01:34:11.195Z,56.54
2023-03-15T01:36:56.598Z,56.44
2023-03-15T01:39:48.895Z,56.28
2023-03-15T01:42:54.055Z,56.61
2023-03-15T01:46:04.580Z,56.32
2023-03-15T01:49:02.356Z,55.86
2023-03-15T01:52:06.977Z,55.91
2023-03-15T01:55:19.545Z,55.55
2023-03-15T01:58:28.810Z,55.55
2023-03-15T02:01:16.372Z,55.46
2023-03-15T02:04:11.774Z,55.15
2023-03-15T02:07:03.688Z,55.41
2023-03-15T02:10:01.471Z,55.78
2023-03-15T02:12:53.102Z,55.13
2023-03-15T02:15:39.327Z,55.19
2023-03-15T02:18:26.261Z,55.37
2023-03-15T02:21:21.713Z,56.74
2023-03-15T02:24:12.990Z,56.82
2023-03-15T02:26:58.826Z,56.90
2023-03-15T02:29:44.081Z,56.91
2023-03-15T02:32:31.523Z,57.18
2023-03-15T02:35:29.638Z,57.57
2023-03-15T02:38:15.430Z,57.12
2023-03-15T02:41:03.768Z,56.65
2023-03-15T02:43:53.351Z,56.40
2023-03-15T02:46:38.743Z,56.37
2023-03-15T02:49:29.981Z,56.35
2023-03-15T02:52:15.629Z,56.44
2023-03-15T02:55:02.245Z,56.37
2023-03-15T02:57:48.285Z,56.48
2023-03-15T03:00:33.933Z,56.28
2023-03-15T03:03:19.284Z,56.62
2023-03-15T03:06:05.130Z,56.90
2023-03-15T03:08:51.120Z,56.73
2023-03-15T03:11:39.046Z,56.15
2023-03-15T03:14:24.768Z,55.57
2023-03-15T03:17:10.290Z,55.27
2023-03-15T03:19:57.323Z,55.09
2023-03-15T03:22:50.421Z,55.87
2023-03-15T03:25:37.577Z,55.99
2023-03-15T03:28:27.909Z,56.51
2023-03-15T03:31:35.474Z,56.55
2023-03-15T03:34:22.437Z,56.81
2023-03-15T03:37:09.190Z,56.09
2023-03-15T03:40:09.293Z,55.83
2023-03-15T03:42:55.301Z,55.93
2023-03-15T03:45:41.756Z,55.50
2023-03-15T03:48:28.935Z,55.23
2023-03-15T03:51:14.593Z,55.62
2023-03-15T03:54:00.116Z,56.62
2023-03-15T03:56:45.537Z,57.64
2023-03-15T03:59:31.500Z,58.73
2023-03-15T04:02:22.566Z,59.04
2023-03-15T04:05:17.040Z,59.95
2023-03-15T04:08:03.477Z,60.89
2023-03-15T04:10:56.961Z,61.46
2023-03-15T04:13:45.533Z,62.79
2023-03-15T04:16:31.260Z,62.40
2023-03-15T04:19:20.573Z,62.82
2023-03-15T04:22:06.683Z,63.61
2023-03-15T04:25:05.666Z,63.92
2023-03-15T04:28:12.812Z,64.45
2023-03-15T04:31:14.978Z,64.01
2023-03-15T04:34:17.715Z,64.02
2023-03-15T04:37:35.588Z,65.41
2023-03-15T04:40:54.923Z,65.67
2023-03-15T04:43:58.685Z,65.41
2023-03-15T04:47:06.686Z,64.90
2023-03-15T04:50:10.581Z,64.76
2023-03-15T04:53:18.912Z,65.05
2023-03-15T04:56:25.112Z,65.44
2023-03-15T04:59:26.802Z,65.80
2023-03-15T05:02:31.159Z,65.73
2023-03-15T05:05:25.546Z,65.90
2023-03-15T05:08:10.965Z,66.55
2023-03-15T05:11:12.440Z,66.99
2023-03-15T05:14:15.460Z,66.70
2023-03-15T05:17:20.049Z,67.06
2023-03-15T05:20:26.022Z,67.22
2023-03-15T05:23:30.178Z,66.25
2023-03-15T05:26:28.579Z,66.22
2023-03-15T05:29:51.393Z,66.43
2023-03-15T05:33:16.027Z,67.79
2023-03-15T05:36:08.552Z,68.63
2023-03-15T05:39:18.508Z,69.13
2023-03-15T05:42:27.506Z,69.03
2023-03-15T05:45:37.423Z,68.92
2023-03-15T05:48:22.721Z,68.37
2023-03-15T05:51:15.192Z,68.64
2023-03-15T05:54:23.136Z,68.14
2023-03-15T05:57:28.879Z,68.37
2023-03-15T06:00:39.202Z,68.80
2023-03-15T06:03:34.085Z,68.75
2023-03-15T06:06:31.524Z,68.84
2023-03-15T06:09:18.095Z,68.94
2023-03-15T06:12:05.277Z,68.75
2023-03-15T06:14:50.669Z,69.41
2023-03-15T06:17:36.537Z,69.88
2023-03-15T06:20:21.972Z,69.64
2023-03-15T06:23:07.813Z,69.39
2023-03-15T06:26:15.122Z,70.39
2023-03-15T06:29:01.155Z,71.56
2023-03-15T06:31:48.094Z,71.55
2023-03-15T06:34:34.016Z,72.99
2023-03-15T06:37:29.024Z,73.49
2023-03-15T06:40:20.415Z,74.39
2023-03-15T06:43:07.515Z,75.14
2023-03-15T06:45:55.978Z,75.16
2023-03-15T06:48:41.644Z,75.10
2023-03-15T06:51:29.563Z,75.81
2023-03-15T06:54:14.945Z,76.19
2023-03-15T06:57:00.902Z,76.79
2023-03-15T06:59:46.196Z,77.00
2023-03-15T07:02:37.107Z,77.61
2023-03-15T07:05:22.561Z,78.68
2023-03-15T07:08:08.067Z,80.01
2023-03-15T07:10:54.003Z,80.20
2023-03-15T07:13:39.323Z,81.95
2023-03-15T07:16:25.885Z,82.27
2023-03-15T07:19:11.478Z,81.88
2023-03-15T07:21:56.843Z,82.95
2023-03-15T07:24:42.222Z,83.88
2023-03-15T07:27:27.660Z,84.73
2023-03-15T07:30:13.589Z,84.72
2023-03-15T07:32:59.079Z,85.21
2023-03-15T07:35:45.548Z,85.64
2023-03-15T07:38:31.209Z,85.12
2023-03-15T07:41:17.589Z,84.91
2023-03-15T07:44:24.133Z,84.79
2023-03-15T07:47:09.872Z,85.32
2023-03-15T07:49:55.691Z,85.40
2023-03-15T07:52:41.088Z,85.66
2023-03-15T07:55:26.721Z,86.30
2023-03-15T07:58:12.055Z,85.21
2023-03-15T08:00:58.281Z,86.15
2023-03-15T08:03:43.916Z,86.53
2023-03-15T08:06:29.974Z,86.79
2023-03-15T08:09:16.647Z,86.77
2023-03-15T08:12:02.667Z,86.52
2023-03-15T08:14:48.451Z,86.65
2023-03-15T08:17:37.287Z,86.15
2023-03-15T08:20:23.069Z,86.45
2023-03-15T08:23:09.270Z,85.93
2023-03-15T08:25:56.976Z,86.07
2023-03-15T08:28:44.543Z,84.27
2023-03-15T08:31:33.459Z,81.70
2023-03-15T08:34:19.112Z,81.38
2023-03-15T08:37:04.780Z,81.21
2023-03-15T08:39:57.912Z,80.59
2023-03-15T08:42:43.614Z,79.66
2023-03-15T08:45:29.250Z,80.30
2023-03-15T08:48:15.001Z,79.58
2023-03-15T08:51:05.421Z,80.10
2023-03-15T08:53:52.923Z,81.13
2023-03-15T08:56:39.989Z,81.48
2023-03-15T08:59:31.679Z,81.45
2023-03-15T09:02:18.517Z,82.12
2023-03-15T09:05:07.233Z,82.22
2023-03-15T09:07:53.323Z,81.07
2023-03-15T09:10:38.689Z,80.91
2023-03-15T09:13:24.816Z,80.75
2023-03-15T09:16:10.258Z,80.97
2023-03-15T09:18:55.651Z,81.09
2023-03-15T09:21:41.858Z,80.86
2023-03-15T09:24:27.984Z,80.71
2023-03-15T09:27:13.619Z,80.73
2023-03-15T09:29:59.365Z,80.27
2023-03-15T09:32:45.934Z,80.52
2023-03-15T09:35:31.435Z,80.68
2023-03-15T09:38:16.870Z,80.14
2023-03-15T09:41:03.810Z,80.07
2023-03-15T09:43:49.376Z,80.37
2023-03-15T09:46:55.488Z,79.68
2023-03-15T09:50:06.218Z,79.12
2023-03-15T09:52:58.565Z,78.70
2023-03-15T09:55:47.552Z,78.69
2023-03-15T09:58:34.844Z,78.96
2023-03-15T10:01:25.870Z,79.74
2023-03-15T10:04:37.307Z,80.53
2023-03-15T10:07:23.428Z,81.02
2023-03-15T10:10:16.240Z,81.26
2023-03-15T10:13:29.262Z,80.26
2023-03-15T10:16:21.027Z,80.48
2023-03-15T10:19:21.168Z,80.82
2023-03-15T10:22:12.865Z,82.25
2023-03-15T10:25:11.441Z,80.86
2023-03-15T10:28:10.810Z,80.50
2023-03-15T10:31:00.177Z,80.82
2023-03-15T10:33:48.371Z,80.95
2023-03-15T10:36:34.179Z,80.52
2023-03-15T10:39:20.039Z,81.00
2023-03-15T10:42:05.821Z,79.60
2023-03-15T10:44:51.092Z,79.10
2023-03-15T10:47:45.203Z,79.19
2023-03-15T10:50:33.925Z,79.72
2023-03-15T10:53:25.642Z,79.80
2023-03-15T10:56:21.944Z,80.52
2023-03-15T10:59:16.526Z,80.74
2023-03-15T11:02:14.385Z,80.63
2023-03-15T11:05:19.567Z,80.43
2023-03-15T11:08:16.180Z,80.64
2023-03-15T11:11:02.088Z,80.91
2023-03-15T11:14:01.528Z,81.02
2023-03-15T11:16:52.468Z,81.36
2023-03-15T11:19:42.253Z,80.65
2023-03-15T11:22:27.666Z,80.65
2023-03-15T11:25:17.684Z,81.30
2023-03-15T11:28:04.475Z,82.01
2023-03-15T11:30:50.536Z,81.43
2023-03-15T11:33:43.563Z,81.99
2023-03-15T11:36:34.687Z,81.75
2023-03-15T11:39:34.768Z,81.46
2023-03-15T11:42:32.664Z,81.50
2023-03-15T11:45:27.062Z,81.27
2023-03-15T11:48:34.357Z,81.57
2023-03-15T11:51:20.005Z,81.84
2023-03-15T11:54:10.462Z,81.99
2023-03-15T11:57:06.251Z,81.69
2023-03-15T11:59:51.902Z,82.19
2023-03-15T12:02:51.562Z,82.79
2023-03-15T12:06:18.795Z,83.42
2023-03-15T12:09:33.250Z,84.07
2023-03-15T12:12:24.977Z,83.77
2023-03-15T12:15:19.630Z,84.51
2023-03-15T12:18:09.027Z,83.47
2023-03-15T12:21:10.932Z,83.62
2023-03-15T12:24:01.514Z,83.64
2023-03-15T12:26:49.795Z,84.03
2023-03-15T12:29:36.301Z,84.40
2023-03-15T12:32:21.698Z,84.17
2023-03-15T12:35:17.568Z,83.53
2023-03-15T12:38:03.142Z,84.02
2023-03-15T12:40:56.556Z,83.57
2023-03-15T12:43:46.459Z,83.70
2023-03-15T12:46:41.361Z,83.69
2023-03-15T12:49:26.824Z,83.37
2023-03-15T12:52:13.491Z,83.22
2023-03-15T12:55:05.958Z,83.62
2023-03-15T12:57:58.018Z,84.11
2023-03-15T13:00:44.582Z,84.46
2023-03-15T13:03:30.381Z,84.57
2023-03-15T13:06:24.725Z,84.67
2023-03-15T13:09:35.320Z,85.10
2023-03-15T13:12:47.687Z,86.19
2023-03-15T13:16:06.632Z,86.30
2023-03-15T13:19:05.461Z,85.94
2023-03-15T13:22:09.797Z,86.16
2023-03-15T13:24:58.436Z,86.33
2023-03-15T13:27:55.849Z,85.88
2023-03-15T13:30:46.584Z,86.26
2023-03-15T13:33:32.753Z,86.31
2023-03-15T13:36:23.502Z,86.25
2023-03-15T13:39:16.420Z,86.44
2023-03-15T13:42:05.960Z,86.11
2023-03-15T13:45:14.135Z,86.75
2023-03-15T13:48:04.848Z,86.97
2023-03-15T13:50:54.730Z,86.98
2023-03-15T13:53:49.606Z,87.12
2023-03-15T13:56:49.714Z,87.37
2023-03-15T13:59:40.445Z,87.19
2023-03-15T14:02:36.785Z,87.52
2023-03-15T14:05:28.976Z,87.09
2023-03-15T14:08:23.046Z,86.98
2023-03-15T14:11:18.025Z,86.78
2023-03-15T14:14:23.443Z,87.25
2023-03-15T14:17:24.558Z,86.85
2023-03-15T14:20:16.064Z,86.65
2023-03-15T14:23:04.177Z,86.66
2023-03-15T14:26:15.176Z,86.95
2023-03-15T14:29:16.568Z,86.54
2023-03-15T14:32:05.797Z,87.05
2023-03-15T14:35:00.021Z,86.66
2023-03-15T14:37:46.881Z,87.10
2023-03-15T14:40:38.690Z,87.49
2023-03-15T14:43:24.481Z,87.56
2023-03-15T14:46:10.065Z,87.58
2023-03-15T14:48:55.350Z,87.90
2023-03-15T14:51:40.612Z,87.84
2023-03-15T14:54:26.331Z,88.50
2023-03-15T14:57:11.910Z,88.71
2023-03-15T14:59:57.227Z,88.60
2023-03-15T15:02:47.980Z,88.75
2023-03-15T15:05:35.483Z,88.54
2023-03-15T15:08:22.493Z,88.79
2023-03-15T15:11:08.991Z,88.17
2023-03-15T15:13:54.906Z,88.67
2023-03-15T15:16:41.983Z,88.63
2023-03-15T15:19:28.349Z,89.03
2023-03-15T15:22:14.353Z,88.78
2023-03-15T15:25:01.497Z,88.93
2023-03-15T15:27:49.012Z,88.38
2023-03-15T15:30:35.202Z,88.61
2023-03-15T15:33:20.817Z,88.27
2023-03-15T15:36:12.257Z,88.46
2023-03-15T15:38:58.245Z,87.98
2023-03-15T15:41:43.934Z,87.83
2023-03-15T15:44:29.632Z,88.13
2023-03-15T15:47:15.761Z,88.21
2023-03-15T15:50:01.725Z,87.89
2023-03-15T15:52:52.597Z,87.53
2023-03-15T15:55:40.430Z,88.27
2023-03-15T15:58:26.639Z,87.96
2023-03-15T16:01:14.244Z,87.64
2023-03-15T16:04:02.169Z,88.19
2023-03-15T16:06:54.527Z,88.54
2023-03-15T16:09:44.159Z,88.29
2023-03-15T16:12:34.172Z,88.32
2023-03-15T16:15:22.540Z,88.92
2023-03-15T16:18:11.929Z,89.15
2023-03-15T16:20:59.230Z,88.75
2023-03-15T16:23:50.710Z,88.50
2023-03-15T16:26:38.228Z,89.09
2023-03-15T16:29:27.366Z,88.62
2023-03-15T16:32:29.778Z,89.28
2023-03-15T16:35:27.849Z,88.72
2023-03-15T16:38:24.110Z,88.44
2023-03-15T16:41:18.300Z,88.82
2023-03-15T16:44:14.981Z,88.47
2023-03-15T16:47:01.953Z,88.50
2023-03-15T16:49:47.638Z,88.58
2023-03-15T16:52:33.763Z,87.62
2023-03-15T16:55:26.186Z,87.98
2023-03-15T16:58:17.956Z,88.04
2023-03-15T17:01:03.708Z,88.09
2023-03-15T17:03:49.172Z,88.07
2023-03-15T17:06:35.218Z,87.74
2023-03-15T17:09:23.422Z,87.44
2023-03-15T17:12:22.865Z,87.84
2023-03-15T17:15:10.428Z,87.80
2023-03-15T17:17:58.673Z,87.84
2023-03-15T17:20:45.639Z,88.37
2023-03-15T17:23:31.931Z,88.09
2023-03-15T17:26:21.109Z,88.04
2023-03-15T17:29:07.430Z,88.22
2023-03-15T17:31:53.506Z,88.12
2023-03-15T17:34:38.906Z,88.11
2023-03-15T17:37:25.810Z,88.37
2023-03-15T17:40:23.767Z,88.33
2023-03-15T17:43:12.766Z,87.85
2023-03-15T17:45:58.088Z,87.94
2023-03-15T17:48:43.488Z,87.14
2023-03-15T17:51:31.598Z,86.74
2023-03-15T17:54:18.437Z,86.64
2023-03-15T17:57:05.068Z,86.53
2023-03-15T17:59:51.383Z,86.05
2023-03-15T18:02:40.721Z,85.90
2023-03-15T18:05:29.970Z,86.46
2023-03-15T18:08:18.523Z,86.62
2023-03-15T18:11:11.891Z,86.76
2023-03-15T18:13:57.247Z,87.14
2023-03-15T18:16:43.465Z,87.30
2023-03-15T18:19:29.086Z,86.91
2023-03-15T18:22:17.029Z,87.06
2023-03-15T18:25:04.903Z,87.86
2023-03-15T18:27:51.349Z,87.03
2023-03-15T18:30:37.104Z,86.99
2023-03-15T18:33:22.841Z,87.34
2023-03-15T18:36:08.920Z,87.27
2023-03-15T18:38:55.093Z,87.00
2023-03-15T18:41:40.750Z,86.74
2023-03-15T18:44:26.131Z,86.46
2023-03-15T18:47:11.566Z,86.76
2023-03-15T18:50:04.441Z,87.09
2023-03-15T18:52:55.743Z,86.96
2023-03-15T18:55:40.848Z,86.76
2023-03-15T18:58:27.824Z,86.89
2023-03-15T19:01:13.555Z,86.65
2023-03-15T19:03:59.174Z,86.81
2023-03-15T19:06:44.679Z,86.85
2023-03-15T19:09:30.055Z,86.50
2023-03-15T19:12:15.295Z,86.33
2023-03-15T19:15:01.314Z,86.31
2023-03-15T19:17:48.685Z,86.83
2023-03-15T19:20:34.970Z,86.65
2023-03-15T19:23:21.096Z,86.55
2023-03-15T19:26:07.043Z,86.80
2023-03-15T19:28:52.821Z,87.06
2023-03-15T19:31:38.943Z,86.74
2023-03-15T19:34:25.308Z,86.43
2023-03-15T19:37:10.713Z,85.78
2023-03-15T19:39:56.182Z,86.10
2023-03-15T19:42:42.493Z,86.33
2023-03-15T19:45:28.472Z,87.05
2023-03-15T19:48:16.117Z,86.79
2023-03-15T19:51:02.437Z,86.67
2023-03-15T19:53:48.346Z,86.67
2023-03-15T19:56:33.869Z,86.55
2023-03-15T19:59:19.638Z,87.03
2023-03-15T20:02:06.022Z,87.16
2023-03-15T20:04:51.596Z,86.91
2023-03-15T20:07:37.718Z,87.22
2023-03-15T20:10:23.980Z,87.24
2023-03-15T20:13:10.864Z,87.48
2023-03-15T20:15:57.352Z,87.07
2023-03-15T20:18:42.998Z,87.19
2023-03-15T20:21:29.643Z,87.79
2023-03-15T20:24:15.187Z,87.33
2023-03-15T20:27:00.612Z,87.93
2023-03-15T20:29:46.215Z,87.86
2023-03-15T20:32:32.090Z,87.96
2023-03-15T20:35:17.792Z,87.70
2023-03-15T20:38:06.934Z,87.69
2023-03-15T20:40:56.626Z,87.78
2023-03-15T20:43:42.058Z,88.31
2023-03-15T20:46:27.856Z,87.89
2023-03-15T20:49:14.280Z,87.83
2023-03-15T20:51:59.793Z,87.89
2023-03-15T20:54:45.210Z,87.50
2023-03-15T20:57:31.286Z,87.54
2023-03-15T21:00:20.496Z,87.58
2023-03-15T21:03:10.994Z,88.16
2023-03-15T21:05:57.748Z,87.60
2023-03-15T21:08:43.924Z,87.19
2023-03-15T21:11:30.828Z,87.22
2023-03-15T21:14:16.306Z,87.38
2023-03-15T21:17:01.923Z,87.07
2023-03-15T21:19:47.487Z,86.44
2023-03-15T21:22:32.971Z,86.50
2023-03-15T21:25:18.826Z,85.96
2023-03-15T21:28:04.740Z,84.74
2023-03-15T21:30:52.455Z,84.45
2023-03-15T21:33:38.585Z,84.55
2023-03-15T21:36:23.995Z,84.50
2023-03-15T21:39:10.835Z,84.53
2023-03-15T21:41:56.192Z,84.67
2023-03-15T21:44:41.740Z,85.15
2023-03-15T21:47:27.680Z,84.76
2023-03-15T21:50:13.384Z,84.97
2023-03-15T21:52:58.668Z,85.27
2023-03-15T21:55:46.183Z,85.28
2023-03-15T21:58:31.691Z,85.65
2023-03-15T22:01:17.113Z,85.55
2023-03-15T22:04:02.687Z,86.09
2023-03-15T22:06:48.177Z,86.44
2023-03-15T22:09:33.492Z,86.49
2023-03-15T22:12:18.781Z,86.77
2023-03-15T22:15:06.370Z,86.62
2023-03-15T22:17:51.847Z,86.76
2023-03-15T22:20:38.033Z,86.41
2023-03-15T22:23:24.096Z,87.06
2023-03-15T22:26:09.825Z,87.14
2023-03-15T22:28:56.051Z,87.04
2023-03-15T22:31:41.530Z,87.41
2023-03-15T22:34:27.599Z,87.12
2023-03-15T22:37:14.438Z,87.10
2023-03-15T22:40:00.656Z,87.04
2023-03-15T22:42:46.918Z,87.34
2023-03-15T22:45:32.539Z,87.45
2023-03-15T22:48:18.076Z,87.33
2023-03-15T22:51:14.244Z,87.25
2023-03-15T22:53:59.997Z,87.53
2023-03-15T22:56:45.387Z,88.23
2023-03-15T22:59:30.765Z,88.15
2023-03-15T23:02:15.987Z,88.24
2023-03-15T23:05:01.677Z,88.56
2023-03-15T23:07:47.682Z,88.27
2023-03-15T23:10:33.759Z,88.45
2023-03-15T23:13:19.313Z,89.15
2023-03-15T23:16:04.882Z,88.28
2023-03-15T23:18:50.430Z,88.74
2023-03-15T23:21:35.979Z,88.74
2023-03-15T23:24:22.693Z,89.10
2023-03-15T23:27:08.553Z,88.43
2023-03-15T23:29:55.217Z,89.33
2023-03-15T23:32:42.057Z,88.96
2023-03-15T23:35:28.747Z,88.80
2023-03-15T23:38:14.433Z,88.92
2023-03-15T23:41:01.040Z,88.42
2023-03-15T23:43:46.698Z,89.16
2023-03-15T23:46:36.107Z,89.22
2023-03-15T23:49:26.508Z,89.45
2023-03-15T23:52:11.998Z,88.76
2023-03-15T23:54:57.283Z,88.82
2023-03-15T23:57:43.351Z,88.03
